createdAt,value
2016-08-25T00:00:10.908Z,21.06
2016-08-25T00:01:10.901Z,21.06
2016-08-25T00:02:10.885Z,21.06
2016-08-25T00:03:10.177Z,21.06
2016-08-25T00:04:10.878Z,21.06
2016-08-25T00:05:10.177Z,20.98
2016-08-25T00:06:10.311Z,20.93
2016-08-25T00:07:10.858Z,20.98
2016-08-25T00:08:10.144Z,20.95
2016-08-25T00:09:10.843Z,20.93
2016-08-25T00:10:10.136Z,20.86
2016-08-25T00:11:10.125Z,20.84
2016-08-25T00:12:10.116Z,20.83
2016-08-25T00:13:11.531Z,20.81
2016-08-25T00:14:10.810Z,20.79
2016-08-25T00:15:10.801Z,20.86
2016-08-25T00:16:10.795Z,20.83
2016-08-25T00:17:11.497Z,20.77
2016-08-25T00:18:10.785Z,20.81
2016-08-25T00:19:10.079Z,20.65
2016-08-25T00:20:10.080Z,20.72
2016-08-25T00:21:10.052Z,20.61
2016-08-25T00:22:10.770Z,20.58
2016-08-25T00:23:10.043Z,20.54
2016-08-25T00:24:10.031Z,20.62
2016-08-25T00:25:10.740Z,20.65
2016-08-25T00:26:10.729Z,20.54
2016-08-25T00:27:10.017Z,20.49
2016-08-25T00:28:10.011Z,20.5
2016-08-25T00:29:11.420Z,20.53
2016-08-25T00:30:10.705Z,20.47
2016-08-25T00:31:10.696Z,20.42
2016-08-25T00:32:11.393Z,20.47
2016-08-25T00:33:10.692Z,20.46
2016-08-25T00:34:10.675Z,20.39
2016-08-25T00:35:11.369Z,20.46
2016-08-25T00:36:11.380Z,20.39
2016-08-25T00:37:09.949Z,20.47
2016-08-25T00:38:09.949Z,20.41
2016-08-25T00:39:10.639Z,20.39
2016-08-25T00:40:09.940Z,20.34
2016-08-25T00:41:09.917Z,20.34
2016-08-25T00:42:10.622Z,20.41
2016-08-25T00:43:10.633Z,20.24
2016-08-25T00:44:10.608Z,20.35
2016-08-25T00:45:11.319Z,20.33
2016-08-25T00:46:09.884Z,20.25
2016-08-25T00:47:10.582Z,20.24
2016-08-25T00:48:10.576Z,20.27
2016-08-25T00:49:10.574Z,20.23
2016-08-25T00:50:10.567Z,20.21
2016-08-25T00:51:09.847Z,20.2
2016-08-25T00:52:10.555Z,20.15
2016-08-25T00:53:09.836Z,20.12
2016-08-25T00:54:09.825Z,20.16
2016-08-25T00:55:11.247Z,20.09
2016-08-25T00:56:11.434Z,20.15
2016-08-25T00:57:09.813Z,20.05
2016-08-25T00:58:10.514Z,20.08
2016-08-25T00:59:09.798Z,20.08
2016-08-25T01:00:10.496Z,20.02
2016-08-25T01:01:11.210Z,20.05
2016-08-25T01:02:11.192Z,19.95
2016-08-25T01:03:09.764Z,19.98
2016-08-25T01:04:10.474Z,19.95
2016-08-25T01:05:09.744Z,19.95
2016-08-25T01:06:11.210Z,19.97
2016-08-25T01:07:09.740Z,19.93
2016-08-25T01:08:11.154Z,19.93
2016-08-25T01:09:09.722Z,19.87
2016-08-25T01:10:10.418Z,19.93
2016-08-25T01:11:10.418Z,19.9
2016-08-25T01:12:10.411Z,19.86
2016-08-25T01:13:09.689Z,19.86
2016-08-25T01:14:10.392Z,19.76
2016-08-25T01:15:10.381Z,19.8
2016-08-25T01:16:11.083Z,19.79
2016-08-25T01:17:11.079Z,19.76
2016-08-25T01:18:10.364Z,19.78
2016-08-25T01:19:10.357Z,19.78
2016-08-25T01:20:11.071Z,19.75
2016-08-25T01:21:09.639Z,19.8
2016-08-25T01:22:09.629Z,19.78
2016-08-25T01:23:11.038Z,19.73
2016-08-25T01:24:09.608Z,19.7
2016-08-25T01:25:10.312Z,19.72
2016-08-25T01:26:10.303Z,19.55
2016-08-25T01:27:09.597Z,19.65
2016-08-25T01:28:10.998Z,19.63
2016-08-25T01:29:09.572Z,19.6
2016-08-25T01:30:10.279Z,19.63
2016-08-25T01:31:10.975Z,19.65
2016-08-25T01:32:10.964Z,19.68
2016-08-25T01:33:09.547Z,19.58
2016-08-25T01:34:09.545Z,19.58
2016-08-25T01:35:09.582Z,19.6
2016-08-25T01:36:09.536Z,19.63
2016-08-25T01:37:10.222Z,19.57
2016-08-25T01:38:10.225Z,19.57
2016-08-25T01:39:10.920Z,19.55
2016-08-25T01:40:10.200Z,19.55
2016-08-25T01:41:10.201Z,19.55
2016-08-25T01:42:10.200Z,19.51
2016-08-25T01:43:10.180Z,19.54
2016-08-25T01:44:10.171Z,19.61
2016-08-25T01:45:10.872Z,19.6
2016-08-25T01:46:10.162Z,19.53
2016-08-25T01:47:10.152Z,19.61
2016-08-25T01:48:09.435Z,19.51
2016-08-25T01:49:09.429Z,19.53
2016-08-25T01:50:10.842Z,19.47
2016-08-25T01:51:09.414Z,19.57
2016-08-25T01:52:10.121Z,19.54
2016-08-25T01:53:10.105Z,19.57
2016-08-25T01:54:10.808Z,19.54
2016-08-25T01:55:10.519Z,19.43
2016-08-25T01:56:10.084Z,19.4
2016-08-25T01:57:09.373Z,19.42
2016-08-25T01:58:09.363Z,19.46
2016-08-25T01:59:10.058Z,19.5
2016-08-25T02:00:10.766Z,19.4
2016-08-25T02:01:10.755Z,19.4
2016-08-25T02:02:10.039Z,19.51
2016-08-25T02:03:10.741Z,19.46
2016-08-25T02:04:09.321Z,19.4
2016-08-25T02:05:09.311Z,19.46
2016-08-25T02:06:09.316Z,19.51
2016-08-25T02:07:10.000Z,19.42
2016-08-25T02:08:09.996Z,19.42
2016-08-25T02:09:09.988Z,19.43
2016-08-25T02:10:10.700Z,19.36
2016-08-25T02:11:09.971Z,19.42
2016-08-25T02:12:09.258Z,19.38
2016-08-25T02:13:10.662Z,19.46
2016-08-25T02:14:09.242Z,19.47
2016-08-25T02:15:09.943Z,19.39
2016-08-25T02:16:09.235Z,19.38
2016-08-25T02:17:10.634Z,19.38
2016-08-25T02:18:09.919Z,19.38
2016-08-25T02:19:09.207Z,19.33
2016-08-25T02:20:09.197Z,19.4
2016-08-25T02:21:09.197Z,19.39
2016-08-25T02:22:10.600Z,19.39
2016-08-25T02:23:09.888Z,19.42
2016-08-25T02:24:09.874Z,19.38
2016-08-25T02:25:09.873Z,19.38
2016-08-25T02:26:10.562Z,19.46
2016-08-25T02:27:09.147Z,19.38
2016-08-25T02:28:09.138Z,19.39
2016-08-25T02:29:09.837Z,19.36
2016-08-25T02:30:09.828Z,19.32
2016-08-25T02:31:09.119Z,19.32
2016-08-25T02:32:10.516Z,19.31
2016-08-25T02:33:09.810Z,19.28
2016-08-25T02:34:09.807Z,19.33
2016-08-25T02:35:09.086Z,19.31
2016-08-25T02:36:09.787Z,19.25
2016-08-25T02:37:09.066Z,19.23
2016-08-25T02:38:09.780Z,19.21
2016-08-25T02:39:09.050Z,19.17
2016-08-25T02:40:10.462Z,19.18
2016-08-25T02:41:09.040Z,19.17
2016-08-25T02:42:09.737Z,19.17
2016-08-25T02:43:09.727Z,19.14
2016-08-25T02:44:09.721Z,19.13
2016-08-25T02:45:09.719Z,19.17
2016-08-25T02:46:09.708Z,19.13
2016-08-25T02:47:08.999Z,19.11
2016-08-25T02:48:08.982Z,19.1
2016-08-25T02:49:08.977Z,19.11
2016-08-25T02:50:10.382Z,19.05
2016-08-25T02:51:08.954Z,18.99
2016-08-25T02:52:09.667Z,18.99
2016-08-25T02:53:09.652Z,18.98
2016-08-25T02:54:09.643Z,18.99
2016-08-25T02:55:09.642Z,18.94
2016-08-25T02:56:09.636Z,18.97
2016-08-25T02:57:10.330Z,18.94
2016-08-25T02:58:10.320Z,18.91
2016-08-25T02:59:09.604Z,18.97
2016-08-25T03:00:10.320Z,18.84
2016-08-25T03:01:09.589Z,18.94
2016-08-25T03:02:10.288Z,18.91
2016-08-25T03:03:09.580Z,18.9
2016-08-25T03:04:10.274Z,18.87
2016-08-25T03:05:10.268Z,18.91
2016-08-25T03:06:08.851Z,18.9
2016-08-25T03:07:08.843Z,18.83
2016-08-25T03:08:09.535Z,18.79
2016-08-25T03:09:09.534Z,18.82
2016-08-25T03:10:10.237Z,18.83
2016-08-25T03:11:10.225Z,18.83
2016-08-25T03:12:09.538Z,18.83
2016-08-25T03:13:08.799Z,18.84
2016-08-25T03:14:08.806Z,18.77
2016-08-25T03:15:09.491Z,18.74
2016-08-25T03:16:09.480Z,18.82
2016-08-25T03:17:09.475Z,18.76
2016-08-25T03:18:09.460Z,18.8
2016-08-25T03:19:10.156Z,18.72
2016-08-25T03:20:09.444Z,18.77
2016-08-25T03:21:09.435Z,18.68
2016-08-25T03:22:09.430Z,18.74
2016-08-25T03:23:10.132Z,18.76
2016-08-25T03:24:09.408Z,18.76
2016-08-25T03:25:10.115Z,18.73
2016-08-25T03:26:09.396Z,18.79
2016-08-25T03:27:08.679Z,18.76
2016-08-25T03:28:09.383Z,18.64
2016-08-25T03:29:08.667Z,18.73
2016-08-25T03:30:08.656Z,18.62
2016-08-25T03:31:08.655Z,18.64
2016-08-25T03:32:08.643Z,18.67
2016-08-25T03:33:08.633Z,18.65
2016-08-25T03:34:10.042Z,18.61
2016-08-25T03:35:09.338Z,18.62
2016-08-25T03:36:08.608Z,18.68
2016-08-25T03:37:09.309Z,18.59
2016-08-25T03:38:08.597Z,18.68
2016-08-25T03:39:09.998Z,18.55
2016-08-25T03:40:10.005Z,18.57
2016-08-25T03:41:09.277Z,18.59
2016-08-25T03:42:09.981Z,18.57
2016-08-25T03:43:09.264Z,18.65
2016-08-25T03:44:09.254Z,18.68
2016-08-25T03:45:09.242Z,18.61
2016-08-25T03:46:09.237Z,18.57
2016-08-25T03:47:09.227Z,18.54
2016-08-25T03:48:09.218Z,18.57
2016-08-25T03:49:08.506Z,18.58
2016-08-25T03:50:08.506Z,18.58
2016-08-25T03:51:09.903Z,18.58
2016-08-25T03:52:08.490Z,18.57
2016-08-25T03:53:09.187Z,18.57
2016-08-25T03:54:09.173Z,18.62
2016-08-25T03:55:09.169Z,18.58
2016-08-25T03:56:09.159Z,18.52
2016-08-25T03:57:09.150Z,18.58
2016-08-25T03:58:09.855Z,18.61
2016-08-25T03:59:09.138Z,18.5
2016-08-25T04:00:09.127Z,18.54
2016-08-25T04:01:08.418Z,18.57
2016-08-25T04:02:08.414Z,18.57
2016-08-25T04:03:08.400Z,18.57
2016-08-25T04:04:08.395Z,18.54
2016-08-25T04:05:09.088Z,18.54
2016-08-25T04:06:09.080Z,18.54
2016-08-25T04:07:08.366Z,18.46
2016-08-25T04:08:08.355Z,18.61
2016-08-25T04:09:09.767Z,18.55
2016-08-25T04:10:09.760Z,18.57
2016-08-25T04:11:09.040Z,18.57
2016-08-25T04:12:09.030Z,18.61
2016-08-25T04:13:08.317Z,18.58
2016-08-25T04:14:09.720Z,18.54
2016-08-25T04:15:09.006Z,18.54
2016-08-25T04:16:08.296Z,18.68
2016-08-25T04:17:09.702Z,18.49
2016-08-25T04:18:08.332Z,18.61
2016-08-25T04:19:08.981Z,18.58
2016-08-25T04:20:08.968Z,18.64
2016-08-25T04:21:08.957Z,18.58
2016-08-25T04:22:08.242Z,18.58
2016-08-25T04:23:08.238Z,18.68
2016-08-25T04:24:08.933Z,18.61
2016-08-25T04:25:08.934Z,18.58
2016-08-25T04:26:09.631Z,18.65
2016-08-25T04:27:08.913Z,18.52
2016-08-25T04:28:08.196Z,18.55
2016-08-25T04:29:08.196Z,18.57
2016-08-25T04:30:08.187Z,18.57
2016-08-25T04:31:08.883Z,18.68
2016-08-25T04:32:08.181Z,18.57
2016-08-25T04:33:08.158Z,18.52
2016-08-25T04:34:08.196Z,18.57
2016-08-25T04:35:09.682Z,18.58
2016-08-25T04:36:09.563Z,18.57
2016-08-25T04:37:09.557Z,18.57
2016-08-25T04:38:08.181Z,18.65
2016-08-25T04:39:09.542Z,18.68
2016-08-25T04:40:08.097Z,18.58
2016-08-25T04:41:08.095Z,18.65
2016-08-25T04:42:08.790Z,18.57
2016-08-25T04:43:08.075Z,18.54
2016-08-25T04:44:08.781Z,18.61
2016-08-25T04:45:08.062Z,18.57
2016-08-25T04:46:09.479Z,18.68
2016-08-25T04:47:08.805Z,18.55
2016-08-25T04:48:08.036Z,18.61
2016-08-25T04:49:08.029Z,18.62
2016-08-25T04:50:08.026Z,18.55
2016-08-25T04:51:08.012Z,18.67
2016-08-25T04:52:08.006Z,18.65
2016-08-25T04:53:08.706Z,18.64
2016-08-25T04:54:08.703Z,18.57
2016-08-25T04:55:07.982Z,18.55
2016-08-25T04:56:07.981Z,18.58
2016-08-25T04:57:08.674Z,18.68
2016-08-25T04:58:07.960Z,18.57
2016-08-25T04:59:07.959Z,18.7
2016-08-25T05:00:08.653Z,18.57
2016-08-25T05:01:07.933Z,18.55
2016-08-25T05:02:08.641Z,18.57
2016-08-25T05:03:08.633Z,18.49
2016-08-25T05:04:07.912Z,18.64
2016-08-25T05:05:07.901Z,18.55
2016-08-25T05:06:08.607Z,18.58
2016-08-25T05:07:07.888Z,18.57
2016-08-25T05:08:09.303Z,18.62
2016-08-25T05:09:07.870Z,18.67
2016-08-25T05:10:08.567Z,18.62
2016-08-25T05:11:07.857Z,18.67
2016-08-25T05:12:07.848Z,18.7
2016-08-25T05:13:07.889Z,18.65
2016-08-25T05:14:08.536Z,18.82
2016-08-25T05:15:07.820Z,18.74
2016-08-25T05:16:08.524Z,18.72
2016-08-25T05:17:08.524Z,18.8
2016-08-25T05:18:07.795Z,18.77
2016-08-25T05:19:08.502Z,18.8
2016-08-25T05:20:07.791Z,18.82
2016-08-25T05:21:07.776Z,18.91
2016-08-25T05:22:07.767Z,18.95
2016-08-25T05:23:07.810Z,18.95
2016-08-25T05:24:09.210Z,18.98
2016-08-25T05:25:07.745Z,18.98
2016-08-25T05:26:07.736Z,19.02
2016-08-25T05:27:07.724Z,18.99
2016-08-25T05:28:08.436Z,18.99
2016-08-25T05:29:08.420Z,19.08
2016-08-25T05:30:07.753Z,19.02
2016-08-25T05:31:08.408Z,19.02
2016-08-25T05:32:07.694Z,19.06
2016-08-25T05:33:07.735Z,19.05
2016-08-25T05:34:09.099Z,19.13
2016-08-25T05:35:07.671Z,19.14
2016-08-25T05:36:07.659Z,19.13
2016-08-25T05:37:08.361Z,19.15
2016-08-25T05:38:08.350Z,19.11
2016-08-25T05:39:07.639Z,19.14
2016-08-25T05:40:08.339Z,19.17
2016-08-25T05:41:08.340Z,19.21
2016-08-25T05:42:09.025Z,19.17
2016-08-25T05:43:07.615Z,19.23
2016-08-25T05:44:08.312Z,19.23
2016-08-25T05:45:09.023Z,19.33
2016-08-25T05:46:08.314Z,19.32
2016-08-25T05:47:08.991Z,19.29
2016-08-25T05:48:08.985Z,19.29
2016-08-25T05:49:08.974Z,19.39
2016-08-25T05:50:07.552Z,19.38
2016-08-25T05:51:08.251Z,19.38
2016-08-25T05:52:08.239Z,19.38
2016-08-25T05:53:08.236Z,19.38
2016-08-25T05:54:07.525Z,19.47
2016-08-25T05:55:08.217Z,19.48
2016-08-25T05:56:08.425Z,19.43
2016-08-25T05:57:08.207Z,19.48
2016-08-25T05:58:07.489Z,19.57
2016-08-25T05:59:07.483Z,19.55
2016-08-25T06:00:08.188Z,19.55
2016-08-25T06:01:08.883Z,19.48
2016-08-25T06:02:08.167Z,19.61
2016-08-25T06:03:08.874Z,19.65
2016-08-25T06:04:07.453Z,19.68
2016-08-25T06:05:07.439Z,19.66
2016-08-25T06:06:08.139Z,19.7
2016-08-25T06:07:07.424Z,19.73
2016-08-25T06:08:08.832Z,19.78
2016-08-25T06:09:07.410Z,19.8
2016-08-25T06:10:08.105Z,19.79
2016-08-25T06:11:08.097Z,19.93
2016-08-25T06:12:08.802Z,19.98
2016-08-25T06:13:08.082Z,19.95
2016-08-25T06:14:07.371Z,19.95
2016-08-25T06:15:08.098Z,19.93
2016-08-25T06:16:08.071Z,20.06
2016-08-25T06:17:07.346Z,20.06
2016-08-25T06:18:08.046Z,20.13
2016-08-25T06:19:07.339Z,20.15
2016-08-25T06:20:08.033Z,20.21
2016-08-25T06:21:08.031Z,20.23
2016-08-25T06:22:08.020Z,20.33
2016-08-25T06:23:08.721Z,20.3
2016-08-25T06:24:08.007Z,20.3
2016-08-25T06:25:08.710Z,20.46
2016-08-25T06:26:07.284Z,20.42
2016-08-25T06:27:07.282Z,20.47
2016-08-25T06:28:07.985Z,20.47
2016-08-25T06:29:07.264Z,20.5
2016-08-25T06:30:07.965Z,20.59
2016-08-25T06:31:08.666Z,20.56
2016-08-25T06:32:07.245Z,20.62
2016-08-25T06:33:07.940Z,20.74
2016-08-25T06:34:07.227Z,20.84
2016-08-25T06:35:08.636Z,20.96
2016-08-25T06:36:07.917Z,20.84
2016-08-25T06:37:07.915Z,20.93
2016-08-25T06:38:07.911Z,20.98
2016-08-25T06:39:07.189Z,21.02
2016-08-25T06:40:07.184Z,21.09
2016-08-25T06:41:07.885Z,21.2
2016-08-25T06:42:07.875Z,21.21
2016-08-25T06:43:07.875Z,21.24
2016-08-25T06:44:07.870Z,21.23
2016-08-25T06:45:07.860Z,21.34
2016-08-25T06:46:07.851Z,21.3
2016-08-25T06:47:07.133Z,21.34
2016-08-25T06:48:07.128Z,21.38
2016-08-25T06:49:07.130Z,21.35
2016-08-25T06:50:07.826Z,21.51
2016-08-25T06:51:07.816Z,21.53
2016-08-25T06:52:07.812Z,21.61
2016-08-25T06:53:07.095Z,21.57
2016-08-25T06:54:07.100Z,21.61
2016-08-25T06:55:07.791Z,21.75
2016-08-25T06:56:07.076Z,21.91
2016-08-25T06:57:07.072Z,21.95
2016-08-25T06:58:08.481Z,21.92
2016-08-25T06:59:07.058Z,22.04
2016-08-25T07:00:07.046Z,22.14
2016-08-25T07:01:08.456Z,22.32
2016-08-25T07:02:07.040Z,22.31
2016-08-25T07:03:07.735Z,22.32
2016-08-25T07:04:07.025Z,22.28
2016-08-25T07:05:07.016Z,22.41
2016-08-25T07:06:07.008Z,22.47
2016-08-25T07:07:08.416Z,22.53
2016-08-25T07:08:06.995Z,22.59
2016-08-25T07:09:06.999Z,22.65
2016-08-25T07:10:07.689Z,22.64
2016-08-25T07:11:06.973Z,22.57
2016-08-25T07:12:08.380Z,22.69
2016-08-25T07:13:07.673Z,22.69
2016-08-25T07:14:07.673Z,22.78
2016-08-25T07:15:06.945Z,22.82
2016-08-25T07:16:08.360Z,22.82
2016-08-25T07:17:08.352Z,22.87
2016-08-25T07:18:07.633Z,22.87
2016-08-25T07:19:07.642Z,22.86
2016-08-25T07:20:07.621Z,22.92
2016-08-25T07:21:08.321Z,22.96
2016-08-25T07:22:06.907Z,23.02
2016-08-25T07:23:07.607Z,23.09
2016-08-25T07:24:06.894Z,23.09
2016-08-25T07:25:06.892Z,23.08
2016-08-25T07:26:07.586Z,23.29
2016-08-25T07:27:07.583Z,23.2
2016-08-25T07:28:07.587Z,23.42
2016-08-25T07:29:06.864Z,23.4
2016-08-25T07:30:08.269Z,23.6
2016-08-25T07:31:06.851Z,23.62
2016-08-25T07:32:07.555Z,23.77
2016-08-25T07:33:07.546Z,23.64
2016-08-25T07:34:06.838Z,23.83
2016-08-25T07:35:06.828Z,23.85
2016-08-25T07:36:06.820Z,23.92
2016-08-25T07:37:06.813Z,23.87
2016-08-25T07:38:06.810Z,23.8
2016-08-25T07:39:07.512Z,23.82
2016-08-25T07:40:07.505Z,23.89
2016-08-25T07:41:06.787Z,24.01
2016-08-25T07:42:07.496Z,24.04
2016-08-25T07:43:07.479Z,24.13
2016-08-25T07:44:06.776Z,24.16
2016-08-25T07:45:07.475Z,24.2
2016-08-25T07:46:06.755Z,24.32
2016-08-25T07:47:07.462Z,24.38
2016-08-25T07:48:06.751Z,24.31
2016-08-25T07:49:08.158Z,24.32
2016-08-25T07:50:06.746Z,24.32
2016-08-25T07:51:06.732Z,24.41
2016-08-25T07:52:08.156Z,24.41
2016-08-25T07:53:06.739Z,24.41
2016-08-25T07:54:07.423Z,24.47
2016-08-25T07:55:08.122Z,24.45
2016-08-25T07:56:07.613Z,24.5
2016-08-25T07:57:06.699Z,24.47
2016-08-25T07:58:06.689Z,24.59
2016-08-25T07:59:07.624Z,24.68
2016-08-25T08:00:06.681Z,24.73
2016-08-25T08:01:08.087Z,24.76
2016-08-25T08:02:06.667Z,24.83
2016-08-25T08:03:07.383Z,24.9
2016-08-25T08:04:06.658Z,24.97
2016-08-25T08:05:07.354Z,25.07
2016-08-25T08:06:06.649Z,25.05
2016-08-25T08:07:07.344Z,24.98
2016-08-25T08:08:06.640Z,25.07
2016-08-25T08:09:07.347Z,25.09
2016-08-25T08:10:06.625Z,25.17
2016-08-25T08:11:06.634Z,25.2
2016-08-25T08:12:06.613Z,25.25
2016-08-25T08:13:07.315Z,25.3
2016-08-25T08:14:06.605Z,25.25
2016-08-25T08:15:06.603Z,25.24
2016-08-25T08:16:06.588Z,25.27
2016-08-25T08:17:06.587Z,25.62
2016-08-25T08:18:07.290Z,26.36
2016-08-25T08:19:06.581Z,27.14
2016-08-25T08:20:07.283Z,27.71
2016-08-25T08:21:07.275Z,27.84
2016-08-25T08:22:07.283Z,27.73
2016-08-25T08:23:07.272Z,27.58
2016-08-25T08:24:07.264Z,27.35
2016-08-25T08:25:07.975Z,27.26
2016-08-25T08:26:07.256Z,27.17
2016-08-25T08:27:07.246Z,27.24
2016-08-25T08:28:07.248Z,27.38
2016-08-25T08:29:06.535Z,27.59
2016-08-25T08:30:06.530Z,27.77
2016-08-25T08:31:07.234Z,28.04
2016-08-25T08:32:06.519Z,28.44
2016-08-25T08:33:07.224Z,29.03
2016-08-25T08:34:07.220Z,29.65
2016-08-25T08:35:06.509Z,29.89
2016-08-25T08:36:07.209Z,30.19
2016-08-25T08:37:07.212Z,30.19
2016-08-25T08:38:07.199Z,30.29
2016-08-25T08:39:06.495Z,30.3
2016-08-25T08:40:07.908Z,30.29
2016-08-25T08:41:07.195Z,30.27
2016-08-25T08:42:07.898Z,30.19
2016-08-25T08:43:07.185Z,30.26
2016-08-25T08:44:06.477Z,30.09
2016-08-25T08:45:06.472Z,29.89
2016-08-25T08:46:07.881Z,29.81
2016-08-25T08:47:07.173Z,29.57
2016-08-25T08:48:07.168Z,29.28
2016-08-25T08:49:07.891Z,29.16
2016-08-25T08:50:07.167Z,29.01
2016-08-25T08:51:06.457Z,28.95
2016-08-25T08:52:07.862Z,28.78
2016-08-25T08:53:07.154Z,28.7
2016-08-25T08:54:07.149Z,28.56
2016-08-25T08:55:06.486Z,28.53
2016-08-25T08:56:06.435Z,28.59
2016-08-25T08:57:07.136Z,28.59
2016-08-25T08:58:06.425Z,28.69
2016-08-25T08:59:07.127Z,28.68
2016-08-25T09:00:07.119Z,28.53
2016-08-25T09:01:06.413Z,28.5
2016-08-25T09:02:07.122Z,28.41
2016-08-25T09:03:06.402Z,28.32
2016-08-25T09:04:06.403Z,28.21
2016-08-25T09:05:07.101Z,28.04
2016-08-25T09:06:07.098Z,28.03
2016-08-25T09:07:06.399Z,28.04
2016-08-25T09:08:07.091Z,28.13
2016-08-25T09:09:06.385Z,28.16
2016-08-25T09:10:06.378Z,28.46
2016-08-25T09:11:07.082Z,28.73
2016-08-25T09:12:07.077Z,28.85
2016-08-25T09:13:07.074Z,28.9
2016-08-25T09:14:07.781Z,28.9
2016-08-25T09:15:07.794Z,28.85
2016-08-25T09:16:06.359Z,28.63
2016-08-25T09:17:07.057Z,28.62
2016-08-25T09:18:07.053Z,28.59
2016-08-25T09:19:07.056Z,28.56
2016-08-25T09:20:06.341Z,28.54
2016-08-25T09:21:07.991Z,28.5
2016-08-25T09:22:07.040Z,28.53
2016-08-25T09:23:07.036Z,28.56
2016-08-25T09:24:07.027Z,28.58
2016-08-25T09:25:07.061Z,28.66
2016-08-25T09:26:07.032Z,28.81
2016-08-25T09:27:07.025Z,28.9
2016-08-25T09:28:07.019Z,28.91
2016-08-25T09:29:07.778Z,28.9
2016-08-25T09:30:07.042Z,28.95
2016-08-25T09:31:06.293Z,28.91
2016-08-25T09:32:06.996Z,28.9
2016-08-25T09:33:06.285Z,28.87
2016-08-25T09:34:06.993Z,28.88
2016-08-25T09:35:07.000Z,28.88
2016-08-25T09:36:07.692Z,28.96
2016-08-25T09:37:06.281Z,29.1
2016-08-25T09:38:06.967Z,29.1
2016-08-25T09:39:06.969Z,29.19
2016-08-25T09:40:06.257Z,29.06
2016-08-25T09:41:06.959Z,29.18
2016-08-25T09:42:06.955Z,29.08
2016-08-25T09:43:07.018Z,29.18
2016-08-25T09:44:06.946Z,29.16
2016-08-25T09:45:06.953Z,29.22
2016-08-25T09:46:06.998Z,29.16
2016-08-25T09:47:06.231Z,29.15
2016-08-25T09:48:06.273Z,29.18
2016-08-25T09:49:07.650Z,29.25
2016-08-25T09:50:06.925Z,29.22
2016-08-25T09:51:06.916Z,29.38
2016-08-25T09:52:06.206Z,29.33
2016-08-25T09:53:06.912Z,29.34
2016-08-25T09:54:06.910Z,29.37
2016-08-25T09:55:06.902Z,29.38
2016-08-25T09:56:07.105Z,29.44
2016-08-25T09:57:06.894Z,29.49
2016-08-25T09:58:06.885Z,29.49
2016-08-25T09:59:06.892Z,29.6
2016-08-25T10:00:06.879Z,29.63
2016-08-25T10:01:06.875Z,29.59
2016-08-25T10:02:06.166Z,29.63
2016-08-25T10:03:07.574Z,29.59
2016-08-25T10:04:07.567Z,29.59
2016-08-25T10:05:06.862Z,29.66
2016-08-25T10:06:06.149Z,29.71
2016-08-25T10:07:06.853Z,29.75
2016-08-25T10:08:06.851Z,29.74
2016-08-25T10:09:06.136Z,29.71
2016-08-25T10:10:06.839Z,29.81
2016-08-25T10:11:06.832Z,29.97
2016-08-25T10:12:07.535Z,29.97
2016-08-25T10:13:06.137Z,30
2016-08-25T10:14:06.116Z,30.02
2016-08-25T10:15:06.122Z,30.12
2016-08-25T10:16:06.103Z,30.15
2016-08-25T10:17:07.565Z,30.09
2016-08-25T10:18:06.804Z,30.12
2016-08-25T10:19:06.850Z,30.18
2016-08-25T10:20:06.086Z,30.12
2016-08-25T10:21:06.795Z,30.11
2016-08-25T10:22:06.793Z,30.12
2016-08-25T10:23:06.076Z,30.23
2016-08-25T10:24:07.499Z,30.26
2016-08-25T10:25:06.772Z,30.21
2016-08-25T10:26:06.772Z,30.3
2016-08-25T10:27:06.769Z,30.19
2016-08-25T10:28:06.765Z,30.14
2016-08-25T10:29:06.773Z,30.3
2016-08-25T10:30:06.052Z,30.3
2016-08-25T10:31:06.045Z,30.43
2016-08-25T10:32:06.042Z,30.43
2016-08-25T10:33:06.032Z,30.46
2016-08-25T10:34:06.034Z,30.45
2016-08-25T10:35:06.742Z,30.56
2016-08-25T10:36:06.024Z,30.59
2016-08-25T10:37:07.443Z,30.83
2016-08-25T10:38:06.750Z,30.99
2016-08-25T10:39:06.734Z,31.13
2016-08-25T10:40:06.751Z,31.21
2016-08-25T10:41:06.078Z,31.33
2016-08-25T10:42:06.006Z,31.49
2016-08-25T10:43:06.704Z,31.58
2016-08-25T10:44:06.697Z,31.72
2016-08-25T10:45:06.698Z,31.84
2016-08-25T10:46:06.693Z,31.92
2016-08-25T10:47:07.399Z,32.02
2016-08-25T10:48:06.696Z,31.93
2016-08-25T10:49:05.977Z,32
2016-08-25T10:50:06.682Z,32.07
2016-08-25T10:51:05.969Z,32.05
2016-08-25T10:52:05.962Z,32.18
2016-08-25T10:53:06.677Z,32.22
2016-08-25T10:54:07.373Z,32.17
2016-08-25T10:55:05.957Z,32.17
2016-08-25T10:56:06.660Z,32.18
2016-08-25T10:57:06.656Z,32.27
2016-08-25T10:58:05.952Z,32.4
2016-08-25T10:59:06.650Z,32.44
2016-08-25T11:00:06.650Z,32.47
2016-08-25T11:01:07.371Z,32.43
2016-08-25T11:02:06.647Z,32.57
2016-08-25T11:03:06.642Z,32.79
2016-08-25T11:04:06.643Z,32.95
2016-08-25T11:05:07.346Z,33.13
2016-08-25T11:06:06.641Z,33.14
2016-08-25T11:07:05.932Z,33.14
2016-08-25T11:08:07.358Z,33.06
2016-08-25T11:09:05.931Z,33.15
2016-08-25T11:10:06.636Z,33.17
2016-08-25T11:11:05.929Z,33.3
2016-08-25T11:12:05.929Z,33.48
2016-08-25T11:13:07.343Z,33.73
2016-08-25T11:14:05.933Z,33.95
2016-08-25T11:15:06.640Z,34.41
2016-08-25T11:16:05.932Z,34.58
2016-08-25T11:17:05.935Z,34.86
2016-08-25T11:18:05.944Z,35.1
2016-08-25T11:19:06.653Z,35.33
2016-08-25T11:20:05.949Z,35.57
2016-08-25T11:21:06.663Z,35.86
2016-08-25T11:22:06.660Z,36.06
2016-08-25T11:23:06.663Z,36.14
2016-08-25T11:24:06.006Z,36.21
2016-08-25T11:25:06.672Z,36.41
2016-08-25T11:26:05.964Z,36.48
2016-08-25T11:27:05.999Z,36.65
2016-08-25T11:28:06.694Z,36.98
2016-08-25T11:29:07.407Z,37.01
2016-08-25T11:30:06.700Z,37.24
2016-08-25T11:31:05.987Z,37.56
2016-08-25T11:32:06.697Z,37.66
2016-08-25T11:33:05.997Z,37.68
2016-08-25T11:34:06.006Z,37.68
2016-08-25T11:35:07.434Z,37.81
2016-08-25T11:36:06.724Z,38.11
2016-08-25T11:37:06.035Z,38.36
2016-08-25T11:38:06.734Z,38.33
2016-08-25T11:39:06.740Z,38.44
2016-08-25T11:40:06.765Z,38.75
2016-08-25T11:41:06.750Z,38.99
2016-08-25T11:42:06.758Z,39.01
2016-08-25T11:43:06.768Z,39.25
2016-08-25T11:44:06.772Z,39.27
2016-08-25T11:46:06.081Z,39.25
2016-08-25T11:47:06.088Z,39.43
2016-08-25T11:48:06.800Z,39.71
2016-08-25T11:49:06.810Z,39.88
2016-08-25T11:50:07.544Z,40.1
2016-08-25T11:51:06.126Z,40.05
2016-08-25T11:52:06.837Z,40.11
2016-08-25T11:53:06.144Z,40.12
2016-08-25T11:54:06.862Z,40
2016-08-25T11:55:06.851Z,39.69
2016-08-25T11:56:07.077Z,39.76
2016-08-25T11:57:06.162Z,39.98
2016-08-25T11:58:06.179Z,40.24
2016-08-25T11:59:06.182Z,40.27
2016-08-25T12:00:06.194Z,40.52
2016-08-25T12:01:06.197Z,40.72
2016-08-25T12:02:06.916Z,41.03
2016-08-25T12:03:06.220Z,41.08
2016-08-25T12:04:06.225Z,41.21
2016-08-25T12:05:06.942Z,41.49
2016-08-25T12:06:06.251Z,41.7
2016-08-25T12:07:06.968Z,41.59
2016-08-25T12:08:06.973Z,41.71
2016-08-25T12:09:06.273Z,41.91
2016-08-25T12:10:06.987Z,41.52
2016-08-25T12:11:06.291Z,41.7
2016-08-25T12:12:07.723Z,41.63
2016-08-25T12:13:06.317Z,41.37
2016-08-25T12:14:06.326Z,40.98
2016-08-25T12:15:07.047Z,41.29
2016-08-25T12:16:07.046Z,41.74
2016-08-25T12:17:06.343Z,41.94
2016-08-25T12:18:07.070Z,42.2
2016-08-25T12:19:07.094Z,42.37
2016-08-25T12:20:07.076Z,42.38
2016-08-25T12:21:06.390Z,42.46
2016-08-25T12:22:06.396Z,42.75
2016-08-25T12:23:06.406Z,42.79
2016-08-25T12:24:06.417Z,42.91
2016-08-25T12:25:06.428Z,43.27
2016-08-25T12:26:07.155Z,43.51
2016-08-25T12:27:07.858Z,43.41
2016-08-25T12:28:07.155Z,43.26
2016-08-25T12:29:06.461Z,43.41
2016-08-25T12:30:07.178Z,43.53
2016-08-25T12:31:07.188Z,43.52
2016-08-25T12:32:06.485Z,43.53
2016-08-25T12:33:07.202Z,43.41
2016-08-25T12:34:06.561Z,43.6
2016-08-25T12:35:06.518Z,43.33
2016-08-25T12:36:07.230Z,43.25
2016-08-25T12:37:07.241Z,43.33
2016-08-25T12:38:07.257Z,43.41
2016-08-25T12:39:06.556Z,43.41
2016-08-25T12:40:07.298Z,43.22
2016-08-25T12:41:07.283Z,43.19
2016-08-25T12:42:06.585Z,43.03
2016-08-25T12:43:07.304Z,43.22
2016-08-25T12:44:07.315Z,43.14
2016-08-25T12:45:08.024Z,43.03
2016-08-25T12:46:06.628Z,43.33
2016-08-25T12:47:06.634Z,43.42
2016-08-25T12:48:07.349Z,43.65
2016-08-25T12:49:07.361Z,43.95
2016-08-25T12:50:06.714Z,43.95
2016-08-25T12:51:06.678Z,43.61
2016-08-25T12:52:06.679Z,43.57
2016-08-25T12:53:06.697Z,43.68
2016-08-25T12:54:07.412Z,43.92
2016-08-25T12:55:07.422Z,43.94
2016-08-25T12:56:06.774Z,44.02